Time;durP1;ratioP1;P1;durP2;ratioP2;P2;SDS_P1;SDS_P2;PMS_P1;PMS_P2;Temp;Humidity;BMP_temperature;BMP_pressure;BME280_temperature;BME280_humidity;BME280_pressure;Samples;Min_cycle;Max_cycle;Signal;HPM_P1;HPM_P2
2022/06/24 00:00:49;;;;;;;1.90;1.80;;;;;;;;;;2090251;28;20021;-75
2022/06/24 00:02:09;;;;;;;2.65;2.20;;;;;;;;;;2091872;28;20058;-73
2022/06/24 00:03:30;;;;;;;3.38;2.22;;;;;;;;;;2091478;28;21250;-74
2022/06/24 00:04:54;;;;;;;3.20;1.92;;;;;;;;;;2090856;28;20041;-73
2022/06/24 00:06:14;;;;;;;2.15;1.95;;;;;;;;;;2091436;28;20422;-75
2022/06/24 00:07:43;;;;;;;2.03;1.73;;;;;;;;;;2092890;28;20107;-74
2022/06/24 00:09:02;;;;;;;2.30;1.88;;;;;;;;;;2091615;28;20028;-76
2022/06/24 00:10:23;;;;;;;3.70;2.22;;;;;;;;;;2090882;28;20111;-74
2022/06/24 00:11:42;;;;;;;2.50;2.05;;;;;;;;;;2091240;28;20032;-74
2022/06/24 00:13:02;;;;;;;2.40;2.20;;;;;;;;;;2092731;28;20032;-73
2022/06/24 00:14:24;;;;;;;6.10;2.35;;;;;;;;;;2091338;28;20044;-73
2022/06/24 00:15:43;;;;;;;3.08;2.17;;;;;;;;;;2090749;28;20025;-74
2022/06/24 00:17:03;;;;;;;3.70;2.17;;;;;;;;;;2091826;28;20418;-73
2022/06/24 00:18:22;;;;;;;2.08;1.85;;;;;;;;;;2090999;28;20025;-74
2022/06/24 00:19:52;;;;;;;2.75;2.00;;;;;;;;;;2090777;28;20028;-75
2022/06/24 00:21:12;;;;;;;3.30;2.33;;;;;;;;;;2090869;28;20537;-74
2022/06/24 00:22:39;;;;;;;1.90;1.70;;;;;;;;;;2091509;28;20382;-75
2022/06/24 00:23:57;;;;;;;2.00;1.90;;;;;;;;;;2090431;28;20060;-74
2022/06/24 00:25:20;;;;;;;2.08;1.88;;;;;;;;;;2091366;28;20033;-74
2022/06/24 00:26:40;;;;;;;1.88;1.60;;;;;;;;;;2092338;28;20029;-74
2022/06/24 00:28:22;;;;;;;3.83;1.88;;;;;;;;;;2093086;28;20041;-74
2022/06/24 00:29:41;;;;;;;2.90;2.15;;;;;;;;;;2091291;28;20048;-74
2022/06/24 00:31:02;;;;;;;3.53;2.20;;;;;;;;;;2088430;28;20493;-74
2022/06/24 00:32:29;;;;;;;3.25;1.92;;;;;;;;;;2091145;28;20033;-74
2022/06/24 00:33:48;;;;;;;2.40;1.98;;;;;;;;;;2093167;28;20044;-74
2022/06/24 00:35:07;;;;;;;3.25;2.30;;;;;;;;;;2090523;28;20046;-74
2022/06/24 00:36:26;;;;;;;2.85;1.83;;;;;;;;;;2091298;28;20052;-74
2022/06/24 00:37:46;;;;;;;2.95;2.10;;;;;;;;;;2092229;28;20021;-74
2022/06/24 00:39:05;;;;;;;4.10;2.20;;;;;;;;;;2091429;28;20029;-74
2022/06/24 00:40:24;;;;;;;5.80;2.15;;;;;;;;;;2091448;28;20064;-75
2022/06/24 00:41:48;;;;;;;3.20;2.05;;;;;;;;;;2092543;28;20021;-74
2022/06/24 00:43:17;;;;;;;2.75;2.10;;;;;;;;;;2091448;28;20033;-74
2022/06/24 00:44:43;;;;;;;3.95;2.17;;;;;;;;;;2090097;28;20084;-76
2022/06/24 00:46:14;;;;;;;2.85;2.25;;;;;;;;;;2091108;28;20032;-73
2022/06/24 00:47:35;;;;;;;3.30;2.13;;;;;;;;;;2095651;28;20032;-73
2022/06/24 00:48:56;;;;;;;2.53;2.03;;;;;;;;;;2089759;28;20053;-73
2022/06/24 00:50:23;;;;;;;1.98;1.85;;;;;;;;;;2091823;28;20033;-77
2022/06/24 00:51:42;;;;;;;3.08;2.05;;;;;;;;;;2091874;28;20033;-74
2022/06/24 00:53:01;;;;;;;2.92;1.90;;;;;;;;;;2088567;28;20033;-74
2022/06/24 00:54:22;;;;;;;3.10;1.92;;;;;;;;;;2091916;28;20025;-73
2022/06/24 00:55:41;;;;;;;4.93;2.38;;;;;;;;;;2091015;28;20032;-74
2022/06/24 00:57:00;;;;;;;3.30;2.28;;;;;;;;;;2092118;28;20025;-78
2022/06/24 00:58:19;;;;;;;3.17;2.30;;;;;;;;;;2091922;28;20025;-73
2022/06/24 00:59:39;;;;;;;4.03;2.35;;;;;;;;;;2089987;28;20020;-74
2022/06/24 01:00:59;;;;;;;3.03;2.10;;;;;;;;;;2089775;28;20033;-74
2022/06/24 01:02:18;;;;;;;3.20;1.92;;;;;;;;;;2091739;28;20522;-74
2022/06/24 01:03:39;;;;;;;2.00;1.90;;;;;;;;;;2090964;28;20390;-73
2022/06/24 01:05:05;;;;;;;1.90;1.80;;;;;;;;;;2094946;28;20017;-75
2022/06/24 01:06:24;;;;;;;2.20;1.95;;;;;;;;;;2091383;28;20028;-74
2022/06/24 01:07:43;;;;;;;2.10;2.00;;;;;;;;;;2092522;28;20037;-73
2022/06/24 01:09:03;;;;;;;3.25;2.90;;;;;;;;;;2091681;28;20029;-74
2022/06/24 01:10:22;;;;;;;2.42;2.17;;;;;;;;;;2089813;28;20715;-73
2022/06/24 01:11:42;;;;;;;5.03;2.33;;;;;;;;;;2091612;28;20040;-73
2022/06/24 01:13:01;;;;;;;3.10;2.53;;;;;;;;;;2098649;28;20036;-74
2022/06/24 01:14:20;;;;;;;2.10;2.00;;;;;;;;;;2093892;28;20996;-74
2022/06/24 01:15:39;;;;;;;3.35;2.10;;;;;;;;;;2089772;28;20029;-74
2022/06/24 01:16:58;;;;;;;2.90;2.22;;;;;;;;;;2091338;28;20033;-74
2022/06/24 01:18:17;;;;;;;3.03;2.30;;;;;;;;;;2091312;28;20037;-73
2022/06/24 01:19:36;;;;;;;2.38;2.17;;;;;;;;;;2090313;28;20502;-74
2022/06/24 01:20:55;;;;;;;2.50;2.30;;;;;;;;;;2090661;28;20116;-73
2022/06/24 01:22:21;;;;;;;3.20;2.25;;;;;;;;;;2092459;28;20525;-74
2022/06/24 01:23:39;;;;;;;2.30;2.10;;;;;;;;;;2091501;28;20032;-74
2022/06/24 01:24:59;;;;;;;2.38;2.20;;;;;;;;;;2090294;28;20056;-73
2022/06/24 01:26:17;;;;;;;3.17;2.20;;;;;;;;;;2091714;28;20037;-73
2022/06/24 01:27:37;;;;;;;3.10;2.80;;;;;;;;;;2091695;28;20025;-75
2022/06/24 01:28:55;;;;;;;2.90;2.42;;;;;;;;;;2091639;28;20056;-75
2022/06/24 01:30:14;;;;;;;3.58;2.42;;;;;;;;;;2092413;28;20033;-74
2022/06/24 01:31:34;;;;;;;2.75;2.58;;;;;;;;;;2093124;28;20440;-75
2022/06/24 01:32:54;;;;;;;2.63;2.25;;;;;;;;;;2093158;28;20068;-74
2022/06/24 01:34:12;;;;;;;2.35;2.25;;;;;;;;;;2089621;28;20486;-74
2022/06/24 01:35:31;;;;;;;2.70;2.50;;;;;;;;;;2092197;28;20036;-74
2022/06/24 01:36:50;;;;;;;3.45;2.25;;;;;;;;;;2091251;28;20127;-74
2022/06/24 01:38:09;;;;;;;2.63;2.20;;;;;;;;;;2093383;28;20028;-74
2022/06/24 01:39:29;;;;;;;4.20;2.50;;;;;;;;;;2091823;28;20033;-75
2022/06/24 01:40:47;;;;;;;2.08;1.98;;;;;;;;;;2091565;28;20565;-73
2022/06/24 01:42:07;;;;;;;2.58;1.98;;;;;;;;;;2092739;28;20120;-74
2022/06/24 01:43:26;;;;;;;3.17;2.22;;;;;;;;;;2093676;28;20033;-74
2022/06/24 01:44:44;;;;;;;3.33;2.40;;;;;;;;;;2092878;28;20021;-74
2022/06/24 01:46:03;;;;;;;2.72;2.53;;;;;;;;;;2088598;28;20025;-74
2022/06/24 01:47:22;;;;;;;2.15;2.05;;;;;;;;;;2092603;28;20072;-75
2022/06/24 01:48:41;;;;;;;3.00;2.70;;;;;;;;;;2092191;28;20048;-73
2022/06/24 01:50:00;;;;;;;4.82;2.63;;;;;;;;;;2087319;28;20052;-74
2022/06/24 01:51:20;;;;;;;4.20;2.50;;;;;;;;;;2092320;28;20091;-74
2022/06/24 01:52:39;;;;;;;2.63;2.42;;;;;;;;;;2092433;28;20071;-75
2022/06/24 01:53:58;;;;;;;4.13;2.65;;;;;;;;;;2091782;28;20036;-74
2022/06/24 01:55:17;;;;;;;2.78;2.10;;;;;;;;;;2092687;28;20041;-74
2022/06/24 01:56:36;;;;;;;8.23;2.33;;;;;;;;;;2091952;28;20494;-74
2022/06/24 01:57:55;;;;;;;3.15;2.65;;;;;;;;;;2093304;28;20106;-74
2022/06/24 01:59:14;;;;;;;3.30;2.90;;;;;;;;;;2093140;28;20025;-77
2022/06/24 02:00:33;;;;;;;2.65;2.25;;;;;;;;;;2092097;28;20025;-73
2022/06/24 02:01:52;;;;;;;2.90;2.70;;;;;;;;;;2092872;28;20033;-73
2022/06/24 02:03:11;;;;;;;3.90;2.63;;;;;;;;;;2093228;28;20033;-74
2022/06/24 02:04:29;;;;;;;3.88;2.85;;;;;;;;;;2091836;28;20021;-77
2022/06/24 02:05:49;;;;;;;3.38;2.72;;;;;;;;;;2094130;28;20398;-73
2022/06/24 02:07:08;;;;;;;2.63;2.53;;;;;;;;;;2092917;28;20119;-75
2022/06/24 02:08:27;;;;;;;3.42;3.00;;;;;;;;;;2092339;28;20029;-75
2022/06/24 02:14:40;;;;;;;4.97;3.22;;;;;;;;;;2093281;28;20025;-73
2022/06/24 02:16:02;;;;;;;3.08;2.75;;;;;;;;;;2091749;28;20040;-74
2022/06/24 02:17:21;;;;;;;3.70;2.90;;;;;;;;;;2091771;28;20044;-74
2022/06/24 02:18:41;;;;;;;2.88;2.67;;;;;;;;;;2091891;28;20025;-73
2022/06/24 02:20:00;;;;;;;2.38;2.28;;;;;;;;;;2091068;28;20033;-73
2022/06/24 02:21:21;;;;;;;2.40;2.20;;;;;;;;;;2091594;28;20389;-75
2022/06/24 02:22:40;;;;;;;2.92;2.72;;;;;;;;;;2092119;28;20112;-73
2022/06/24 02:23:59;;;;;;;2.95;2.75;;;;;;;;;;2091968;28;20033;-74
2022/06/24 02:25:18;;;;;;;2.58;2.38;;;;;;;;;;2092486;28;20116;-74
2022/06/24 02:26:36;;;;;;;3.40;2.92;;;;;;;;;;2091789;28;20398;-73
2022/06/24 02:27:55;;;;;;;3.45;2.70;;;;;;;;;;2092782;28;20037;-73
2022/06/24 02:29:14;;;;;;;2.92;2.70;;;;;;;;;;2092875;28;20037;-73
2022/06/24 02:30:33;;;;;;;3.72;2.33;;;;;;;;;;2089877;28;20036;-73
2022/06/24 02:31:52;;;;;;;3.30;2.97;;;;;;;;;;2090845;28;20037;-72
2022/06/24 02:33:11;;;;;;;3.97;3.00;;;;;;;;;;2092751;28;20406;-73
2022/06/24 02:34:30;;;;;;;3.30;2.78;;;;;;;;;;2090600;28;20103;-73
2022/06/24 02:35:49;;;;;;;3.13;2.25;;;;;;;;;;2092097;28;20482;-73
2022/06/24 02:37:08;;;;;;;3.08;2.88;;;;;;;;;;2089226;28;20060;-73
2022/06/24 02:38:27;;;;;;;3.28;2.83;;;;;;;;;;2091719;28;20439;-74
2022/06/24 02:39:46;;;;;;;3.92;2.47;;;;;;;;;;2088897;28;20632;-74
2022/06/24 02:41:05;;;;;;;4.22;2.63;;;;;;;;;;2090665;28;20041;-77
2022/06/24 02:42:24;;;;;;;4.00;2.80;;;;;;;;;;2091639;28;20116;-75
2022/06/24 02:43:43;;;;;;;4.10;2.88;;;;;;;;;;2091513;28;20021;-74
2022/06/24 02:45:02;;;;;;;2.85;2.65;;;;;;;;;;2091856;28;20028;-74
2022/06/24 02:46:21;;;;;;;3.75;3.00;;;;;;;;;;2091865;28;20400;-74
2022/06/24 02:47:40;;;;;;;5.45;2.83;;;;;;;;;;2092177;28;20033;-73
2022/06/24 02:48:59;;;;;;;3.22;2.88;;;;;;;;;;2091942;28;20032;-76
2022/06/24 02:50:18;;;;;;;2.90;2.55;;;;;;;;;;2091917;28;20094;-74
2022/06/24 02:51:36;;;;;;;2.95;2.63;;;;;;;;;;2090408;28;20025;-74
2022/06/24 02:52:55;;;;;;;2.72;2.53;;;;;;;;;;2090682;28;20056;-74
2022/06/24 02:54:14;;;;;;;3.40;3.10;;;;;;;;;;2092230;28;20036;-74
2022/06/24 02:55:33;;;;;;;3.10;2.70;;;;;;;;;;2089108;28;20418;-73
2022/06/24 02:56:52;;;;;;;5.35;2.80;;;;;;;;;;2091822;28;20116;-74
2022/06/24 02:58:11;;;;;;;2.75;2.53;;;;;;;;;;2091558;28;20028;-74
2022/06/24 02:59:30;;;;;;;4.57;2.80;;;;;;;;;;2091049;28;20033;-74
2022/06/24 03:00:49;;;;;;;6.13;2.90;;;;;;;;;;2087558;28;20024;-74
2022/06/24 03:02:07;;;;;;;2.85;2.75;;;;;;;;;;2088712;28;20028;-74
2022/06/24 03:03:27;;;;;;;3.50;3.20;;;;;;;;;;2092061;28;20029;-74
2022/06/24 03:04:46;;;;;;;4.38;2.78;;;;;;;;;;2092173;28;20017;-74
2022/06/24 03:06:05;;;;;;;3.03;2.85;;;;;;;;;;2091045;28;20482;-74
2022/06/24 03:07:23;;;;;;;2.78;2.58;;;;;;;;;;2090385;28;20033;-74
2022/06/24 03:08:43;;;;;;;4.85;3.00;;;;;;;;;;2091611;28;20037;-74
2022/06/24 03:10:02;;;;;;;3.97;2.72;;;;;;;;;;2086253;28;20092;-75
2022/06/24 03:11:21;;;;;;;5.50;3.60;;;;;;;;;;2092420;28;20041;-76
2022/06/24 03:12:40;;;;;;;3.55;3.10;;;;;;;;;;2090033;28;20115;-75
2022/06/24 03:13:59;;;;;;;3.08;2.88;;;;;;;;;;2092522;28;20040;-74
2022/06/24 03:15:18;;;;;;;3.20;3.00;;;;;;;;;;2091684;28;20447;-77
2022/06/24 03:16:37;;;;;;;4.43;4.03;;;;;;;;;;2091185;28;20052;-74
2022/06/24 03:17:56;;;;;;;3.63;3.33;;;;;;;;;;2090520;28;20025;-74
2022/06/24 03:19:15;;;;;;;3.60;3.00;;;;;;;;;;2087962;28;20116;-74
2022/06/24 03:20:34;;;;;;;3.08;2.88;;;;;;;;;;2091267;28;20879;-75
2022/06/24 03:21:53;;;;;;;3.40;3.20;;;;;;;;;;2092214;28;20032;-75
2022/06/24 03:23:12;;;;;;;3.28;2.97;;;;;;;;;;2091424;28;20486;-74
2022/06/24 03:24:31;;;;;;;3.47;3.17;;;;;;;;;;2092129;28;20029;-75
2022/06/24 03:25:50;;;;;;;3.28;2.90;;;;;;;;;;2091679;28;20028;-75
2022/06/24 03:27:09;;;;;;;6.47;3.50;;;;;;;;;;2091756;28;20033;-75
2022/06/24 03:28:28;;;;;;;3.40;3.20;;;;;;;;;;2092001;28;20119;-77
2022/06/24 03:29:47;;;;;;;3.92;3.25;;;;;;;;;;2090357;28;20029;-74
2022/06/24 03:31:06;;;;;;;3.72;3.40;;;;;;;;;;2090639;28;20049;-76
2022/06/24 03:32:25;;;;;;;4.65;3.03;;;;;;;;;;2091260;28;20037;-74
2022/06/24 03:33:45;;;;;;;3.33;3.13;;;;;;;;;;2091653;28;20029;-74
2022/06/24 03:35:04;;;;;;;3.83;3.28;;;;;;;;;;2091426;28;20036;-74
2022/06/24 03:36:23;;;;;;;3.70;3.40;;;;;;;;;;2091174;28;20457;-74
2022/06/24 03:37:42;;;;;;;3.80;3.45;;;;;;;;;;2087044;28;20020;-74
2022/06/24 03:39:00;;;;;;;4.72;4.00;;;;;;;;;;2091470;28;20029;-74
2022/06/24 03:40:20;;;;;;;3.55;3.22;;;;;;;;;;2091833;28;20513;-74
2022/06/24 03:41:39;;;;;;;3.65;3.33;;;;;;;;;;2092176;28;20064;-75
2022/06/24 03:42:58;;;;;;;4.78;3.33;;;;;;;;;;2091521;28;20498;-75
2022/06/24 03:44:17;;;;;;;3.55;3.10;;;;;;;;;;2091978;28;20036;-74
2022/06/24 03:45:35;;;;;;;3.65;2.97;;;;;;;;;;2090094;28;20486;-74
2022/06/24 03:46:55;;;;;;;3.78;3.45;;;;;;;;;;2090422;28;20025;-74
2022/06/24 03:48:14;;;;;;;3.38;3.20;;;;;;;;;;2089615;28;20048;-74
2022/06/24 03:49:33;;;;;;;3.45;3.25;;;;;;;;;;2092501;28;20036;-73
2022/06/24 03:50:52;;;;;;;3.70;3.45;;;;;;;;;;2092066;28;20033;-75
2022/06/24 03:52:11;;;;;;;3.50;3.30;;;;;;;;;;2090709;28;20033;-74
2022/06/24 03:53:31;;;;;;;3.97;3.67;;;;;;;;;;2089403;28;20032;-76
2022/06/24 03:54:51;;;;;;;4.05;3.80;;;;;;;;;;2092310;28;20033;-74
2022/06/24 03:56:10;;;;;;;3.85;3.55;;;;;;;;;;2092468;28;20021;-74
2022/06/24 03:57:29;;;;;;;4.53;3.42;;;;;;;;;;2091863;28;20041;-74
2022/06/24 03:58:48;;;;;;;3.45;3.20;;;;;;;;;;2090172;28;20490;-75
2022/06/24 04:00:08;;;;;;;6.50;3.80;;;;;;;;;;2090210;28;20056;-74
2022/06/24 04:01:26;;;;;;;3.90;3.40;;;;;;;;;;2093811;28;20024;-77
2022/06/24 04:02:45;;;;;;;4.70;3.50;;;;;;;;;;2093275;28;20025;-75
2022/06/24 04:04:04;;;;;;;3.70;3.40;;;;;;;;;;2090348;28;20032;-78
2022/06/24 04:05:23;;;;;;;4.20;3.50;;;;;;;;;;2091501;28;20040;-74
2022/06/24 04:06:42;;;;;;;3.97;3.58;;;;;;;;;;2092109;28;20056;-74
2022/06/24 04:08:01;;;;;;;4.97;4.13;;;;;;;;;;2092335;28;20033;-74
2022/06/24 04:09:20;;;;;;;4.70;3.42;;;;;;;;;;2089992;28;20033;-75
2022/06/24 04:10:38;;;;;;;4.80;3.35;;;;;;;;;;2088815;28;20517;-74
2022/06/24 04:11:57;;;;;;;4.97;3.67;;;;;;;;;;2090760;28;20037;-74
2022/06/24 04:13:16;;;;;;;3.75;3.45;;;;;;;;;;2089701;28;20064;-74
2022/06/24 04:16:13;;;;;;;3.65;3.35;;;;;;;;;;2091208;28;20045;-76
2022/06/24 04:17:32;;;;;;;4.05;3.30;;;;;;;;;;2092103;28;20028;-75
2022/06/24 04:18:51;;;;;;;4.35;4.00;;;;;;;;;;2089682;28;20037;-74
2022/06/24 04:20:10;;;;;;;5.40;3.60;;;;;;;;;;2091417;28;20104;-74
2022/06/24 04:21:31;;;;;;;4.18;3.70;;;;;;;;;;2092092;28;20021;-75
2022/06/24 04:22:50;;;;;;;3.92;3.60;;;;;;;;;;2089517;28;20366;-74
2022/06/24 04:24:09;;;;;;;4.97;3.75;;;;;;;;;;2088443;28;20025;-74
2022/06/24 04:25:27;;;;;;;3.30;3.15;;;;;;;;;;2092193;28;20032;-74
2022/06/24 04:26:46;;;;;;;4.25;3.35;;;;;;;;;;2091526;28;20020;-76
2022/06/24 04:28:05;;;;;;;3.03;2.83;;;;;;;;;;2093215;28;20025;-74
2022/06/24 04:29:24;;;;;;;3.90;3.55;;;;;;;;;;2090565;28;20048;-76
2022/06/24 04:30:43;;;;;;;3.33;3.03;;;;;;;;;;2086995;28;20037;-75
2022/06/24 04:32:02;;;;;;;3.30;3.10;;;;;;;;;;2092388;28;20040;-75
2022/06/24 04:33:21;;;;;;;3.53;3.22;;;;;;;;;;2091263;28;20029;-75
2022/06/24 04:34:39;;;;;;;4.50;3.40;;;;;;;;;;2090730;28;20029;-74
2022/06/24 04:35:58;;;;;;;5.13;3.30;;;;;;;;;;2092104;28;20037;-74
2022/06/24 04:37:17;;;;;;;3.28;2.97;;;;;;;;;;2091439;28;20025;-74
2022/06/24 04:38:36;;;;;;;3.17;2.90;;;;;;;;;;2091329;28;20060;-74
2022/06/24 04:39:56;;;;;;;3.30;2.80;;;;;;;;;;2090849;28;20057;-74
2022/06/24 04:41:18;;;;;;;3.08;2.88;;;;;;;;;;2090839;28;20025;-74
2022/06/24 04:42:38;;;;;;;5.35;3.08;;;;;;;;;;2090198;28;20429;-74
2022/06/24 04:43:56;;;;;;;4.40;2.95;;;;;;;;;;2090752;28;20036;-74
2022/06/24 04:45:15;;;;;;;3.60;3.20;;;;;;;;;;2091288;28;20033;-74
2022/06/24 04:46:34;;;;;;;3.35;3.15;;;;;;;;;;2091468;28;20044;-74
2022/06/24 04:47:53;;;;;;;5.07;3.33;;;;;;;;;;2091964;28;20033;-75
2022/06/24 04:49:12;;;;;;;4.72;2.95;;;;;;;;;;2089733;28;20526;-74
2022/06/24 04:50:32;;;;;;;3.17;2.80;;;;;;;;;;2090051;28;20033;-74
2022/06/24 04:51:51;;;;;;;3.33;3.03;;;;;;;;;;2090445;28;20522;-75
2022/06/24 04:53:10;;;;;;;2.95;2.72;;;;;;;;;;2091919;28;20041;-74
2022/06/24 04:54:29;;;;;;;3.15;2.95;;;;;;;;;;2090402;28;20032;-75
2022/06/24 04:55:48;;;;;;;2.78;2.67;;;;;;;;;;2091623;28;20033;-76
2022/06/24 04:57:07;;;;;;;3.40;2.92;;;;;;;;;;2090420;28;20112;-74
2022/06/24 04:58:25;;;;;;;3.97;3.17;;;;;;;;;;2090463;28;20021;-75
2022/06/24 04:59:45;;;;;;;3.80;3.03;;;;;;;;;;2089847;28;20021;-75
2022/06/24 05:01:03;;;;;;;3.33;3.00;;;;;;;;;;2091065;28;20104;-75
2022/06/24 05:02:22;;;;;;;3.72;2.90;;;;;;;;;;2091237;28;20021;-74
2022/06/24 05:03:43;;;;;;;3.40;3.10;;;;;;;;;;2094368;28;20029;-74
2022/06/24 05:05:02;;;;;;;3.10;2.80;;;;;;;;;;2091386;28;20029;-74
2022/06/24 05:06:21;;;;;;;3.08;2.88;;;;;;;;;;2092159;28;20028;-75
2022/06/24 05:07:40;;;;;;;4.80;3.10;;;;;;;;;;2092826;28;20497;-74
2022/06/24 05:08:59;;;;;;;3.28;3.03;;;;;;;;;;2092610;28;20037;-77
2022/06/24 05:10:18;;;;;;;3.58;3.28;;;;;;;;;;2092686;28;20036;-76
2022/06/24 05:11:37;;;;;;;3.15;2.95;;;;;;;;;;2091302;28;20483;-74
2022/06/24 05:12:56;;;;;;;3.05;2.85;;;;;;;;;;2089578;28;20069;-74
2022/06/24 05:14:15;;;;;;;2.88;2.72;;;;;;;;;;2092625;28;20032;-74
2022/06/24 05:15:34;;;;;;;3.38;3.08;;;;;;;;;;2090724;28;20557;-73
2022/06/24 05:16:53;;;;;;;3.33;3.03;;;;;;;;;;2088554;28;20054;-76
2022/06/24 05:18:12;;;;;;;3.15;2.90;;;;;;;;;;2092383;28;20025;-74
2022/06/24 05:19:31;;;;;;;3.00;2.80;;;;;;;;;;2091545;28;20032;-73
2022/06/24 05:20:50;;;;;;;4.00;3.08;;;;;;;;;;2091852;28;20373;-74
2022/06/24 05:22:08;;;;;;;3.08;2.88;;;;;;;;;;2092150;28;20044;-73
2022/06/24 05:23:28;;;;;;;3.28;3.08;;;;;;;;;;2091848;28;20029;-75
2022/06/24 05:24:47;;;;;;;3.15;2.95;;;;;;;;;;2091734;28;20042;-72
2022/06/24 05:26:06;;;;;;;2.95;2.83;;;;;;;;;;2088889;28;20517;-74
2022/06/24 05:27:25;;;;;;;3.05;2.65;;;;;;;;;;2092334;28;20036;-75
2022/06/24 05:28:43;;;;;;;4.13;3.03;;;;;;;;;;2093046;28;20482;-74
2022/06/24 05:30:03;;;;;;;2.92;2.72;;;;;;;;;;2092887;28;20036;-77
2022/06/24 05:31:22;;;;;;;3.28;2.97;;;;;;;;;;2092523;28;20604;-74
2022/06/24 05:32:41;;;;;;;2.83;2.40;;;;;;;;;;2093460;28;20099;-73
2022/06/24 05:33:59;;;;;;;3.10;2.90;;;;;;;;;;2091980;28;20036;-73
2022/06/24 05:35:19;;;;;;;2.90;2.70;;;;;;;;;;2092088;28;20041;-73
2022/06/24 05:36:38;;;;;;;3.40;3.08;;;;;;;;;;2092543;28;20025;-74
2022/06/24 05:37:56;;;;;;;6.05;2.88;;;;;;;;;;2093108;28;20108;-73
2022/06/24 05:39:15;;;;;;;3.30;3.05;;;;;;;;;;2092229;28;20021;-73
2022/06/24 05:40:34;;;;;;;3.35;3.10;;;;;;;;;;2092172;28;20060;-72
2022/06/24 05:41:53;;;;;;;3.50;3.20;;;;;;;;;;2092831;28;20071;-72
2022/06/24 05:43:12;;;;;;;3.38;3.17;;;;;;;;;;2091948;28;20037;-73
2022/06/24 05:44:31;;;;;;;3.30;3.10;;;;;;;;;;2092318;28;20033;-77
2022/06/24 05:45:50;;;;;;;4.10;2.97;;;;;;;;;;2092353;28;20067;-75
2022/06/24 05:47:09;;;;;;;3.58;2.97;;;;;;;;;;2089684;28;20513;-73
2022/06/24 05:48:30;;;;;;;2.97;2.88;;;;;;;;;;2091418;28;20498;-74
2022/06/24 05:49:49;;;;;;;2.70;2.50;;;;;;;;;;2089840;28;20111;-74
2022/06/24 05:51:08;;;;;;;3.75;2.63;;;;;;;;;;2091810;28;20033;-74
2022/06/24 05:55:43;;;;;;;3.03;2.83;;;;;;;;;;2090398;28;20025;-76
2022/06/24 05:57:02;;;;;;;3.45;2.60;;;;;;;;;;2092540;28;20037;-74
2022/06/24 05:58:21;;;;;;;4.05;2.70;;;;;;;;;;2092963;28;20042;-74
2022/06/24 05:59:40;;;;;;;3.78;2.60;;;;;;;;;;2091728;28;20119;-74
2022/06/24 06:00:59;;;;;;;2.80;2.60;;;;;;;;;;2091207;28;20040;-73
2022/06/24 06:02:20;;;;;;;2.95;2.75;;;;;;;;;;2100748;28;20401;-74
2022/06/24 06:03:40;;;;;;;2.47;2.28;;;;;;;;;;2091364;28;20108;-73
2022/06/24 06:04:59;;;;;;;3.28;2.97;;;;;;;;;;2089665;28;20037;-74
2022/06/24 06:06:18;;;;;;;2.50;2.40;;;;;;;;;;2092529;28;20033;-74
2022/06/24 06:07:38;;;;;;;2.72;2.60;;;;;;;;;;2091731;28;20524;-76
2022/06/24 06:08:57;;;;;;;2.90;2.70;;;;;;;;;;2092365;28;20040;-74
2022/06/24 06:10:16;;;;;;;2.30;2.20;;;;;;;;;;2091112;28;20045;-73
2022/06/24 06:11:35;;;;;;;2.58;2.38;;;;;;;;;;2091191;28;20453;-74
2022/06/24 06:12:54;;;;;;;3.10;2.88;;;;;;;;;;2090817;28;20107;-75
2022/06/24 06:14:13;;;;;;;2.92;2.72;;;;;;;;;;2091892;28;20410;-74
2022/06/24 06:15:32;;;;;;;2.95;2.72;;;;;;;;;;2089731;28;20276;-73
2022/06/24 06:16:51;;;;;;;2.70;2.55;;;;;;;;;;2090604;28;20974;-74
2022/06/24 06:18:10;;;;;;;4.13;2.90;;;;;;;;;;2091386;28;20021;-74
2022/06/24 06:19:29;;;;;;;2.78;2.67;;;;;;;;;;2090003;28;20025;-74
2022/06/24 06:20:48;;;;;;;2.63;2.53;;;;;;;;;;2091129;28;20021;-74
2022/06/24 06:22:07;;;;;;;3.15;2.85;;;;;;;;;;2090518;28;20490;-74
2022/06/24 06:23:28;;;;;;;2.67;2.40;;;;;;;;;;2091358;28;20035;-76
2022/06/24 06:24:46;;;;;;;6.93;2.60;;;;;;;;;;2093128;28;20029;-74
2022/06/24 06:26:06;;;;;;;3.55;2.50;;;;;;;;;;2090363;28;20037;-73
2022/06/24 06:27:26;;;;;;;4.22;2.60;;;;;;;;;;2090285;28;20029;-74
2022/06/24 06:28:45;;;;;;;3.85;2.90;;;;;;;;;;2092358;28;20021;-74
2022/06/24 06:30:04;;;;;;;2.55;2.35;;;;;;;;;;2090524;28;20029;-74
2022/06/24 06:31:23;;;;;;;2.75;2.60;;;;;;;;;;2091403;28;20648;-73
2022/06/24 06:32:42;;;;;;;3.25;2.95;;;;;;;;;;2091643;28;20032;-75
2022/06/24 06:34:02;;;;;;;2.75;2.55;;;;;;;;;;2091097;28;20029;-74
2022/06/24 06:35:20;;;;;;;3.30;2.40;;;;;;;;;;2090338;28;20623;-73
2022/06/24 06:36:39;;;;;;;2.78;2.58;;;;;;;;;;2092211;28;20123;-75
2022/06/24 06:37:58;;;;;;;3.90;2.50;;;;;;;;;;2091360;28;20032;-77
2022/06/24 06:39:17;;;;;;;4.20;2.60;;;;;;;;;;2091612;28;20502;-73
2022/06/24 06:40:37;;;;;;;2.78;2.58;;;;;;;;;;2091310;28;20149;-74
2022/06/24 06:41:55;;;;;;;2.47;2.38;;;;;;;;;;2093409;28;20442;-74
2022/06/24 06:43:14;;;;;;;2.90;2.70;;;;;;;;;;2090856;28;20029;-74
2022/06/24 06:44:34;;;;;;;3.72;2.53;;;;;;;;;;2092351;28;20029;-73
2022/06/24 06:45:53;;;;;;;2.70;2.60;;;;;;;;;;2090551;28;20397;-73
2022/06/24 06:47:12;;;;;;;2.90;2.70;;;;;;;;;;2090671;28;20452;-73
2022/06/24 06:48:31;;;;;;;3.75;2.47;;;;;;;;;;2092408;28;20017;-74
2022/06/24 06:49:50;;;;;;;2.47;2.38;;;;;;;;;;2090312;28;20036;-74
2022/06/24 06:51:09;;;;;;;2.92;2.72;;;;;;;;;;2091197;28;20029;-74
2022/06/24 06:52:28;;;;;;;2.50;2.30;;;;;;;;;;2092578;28;20040;-74
2022/06/24 06:53:47;;;;;;;2.72;1.80;;;;;;;;;;2091549;28;20445;-74
2022/06/24 06:55:06;;;;;;;2.10;2.00;;;;;;;;;;2092372;28;20021;-73
2022/06/24 06:56:25;;;;;;;4.35;1.80;;;;;;;;;;2092925;28;20080;-73
2022/06/24 06:57:44;;;;;;;2.20;2.10;;;;;;;;;;2093642;28;20104;-74
2022/06/24 06:59:03;;;;;;;4.45;2.17;;;;;;;;;;2092153;28;20056;-73
2022/06/24 07:00:22;;;;;;;2.00;1.80;;;;;;;;;;2091572;28;20036;-73
2022/06/24 07:01:40;;;;;;;1.98;1.90;;;;;;;;;;2091510;28;20033;-73
2022/06/24 07:02:59;;;;;;;2.10;1.98;;;;;;;;;;2092735;28;20037;-73
2022/06/24 07:04:18;;;;;;;2.47;1.88;;;;;;;;;;2089788;28;20071;-73
2022/06/24 07:05:38;;;;;;;3.28;1.80;;;;;;;;;;2091822;28;20025;-73
2022/06/24 07:06:57;;;;;;;2.33;2.10;;;;;;;;;;2092181;28;20437;-74
2022/06/24 07:08:16;;;;;;;2.33;1.83;;;;;;;;;;2091912;28;20029;-74
2022/06/24 07:09:35;;;;;;;2.17;1.92;;;;;;;;;;2090017;28;20028;-74
2022/06/24 07:10:54;;;;;;;2.80;1.90;;;;;;;;;;2090992;28;20463;-74
2022/06/24 07:12:13;;;;;;;2.15;2.05;;;;;;;;;;2091056;28;20502;-74
2022/06/24 07:13:32;;;;;;;2.78;2.15;;;;;;;;;;2091672;28;20077;-74
2022/06/24 07:14:51;;;;;;;1.92;1.80;;;;;;;;;;2092015;28;20036;-74
2022/06/24 07:16:10;;;;;;;1.98;1.88;;;;;;;;;;2090312;28;20627;-74
2022/06/24 07:17:29;;;;;;;2.05;1.95;;;;;;;;;;2089633;28;20464;-77
2022/06/24 07:18:48;;;;;;;3.20;2.08;;;;;;;;;;2091315;28;20021;-74
2022/06/24 07:20:07;;;;;;;1.95;1.85;;;;;;;;;;2091746;28;20116;-76
2022/06/24 07:21:26;;;;;;;2.30;2.10;;;;;;;;;;2092047;28;20494;-74
2022/06/24 07:22:45;;;;;;;2.47;2.08;;;;;;;;;;2089141;28;20037;-76
2022/06/24 07:24:04;;;;;;;4.70;2.00;;;;;;;;;;2088877;28;20025;-75
2022/06/24 07:25:23;;;;;;;3.13;2.08;;;;;;;;;;2088454;28;20029;-75
2022/06/24 07:26:42;;;;;;;3.38;1.95;;;;;;;;;;2088170;28;20032;-75
2022/06/24 07:28:02;;;;;;;2.88;2.00;;;;;;;;;;2088389;28;20123;-75
2022/06/24 07:29:21;;;;;;;2.00;1.90;;;;;;;;;;2091896;28;20040;-74
2022/06/24 07:30:40;;;;;;;1.80;1.70;;;;;;;;;;2091146;28;20489;-75
2022/06/24 07:32:00;;;;;;;2.22;2.03;;;;;;;;;;2090918;28;20064;-79
2022/06/24 07:33:19;;;;;;;1.92;1.83;;;;;;;;;;2090721;28;20036;-79
2022/06/24 07:34:38;;;;;;;1.67;1.58;;;;;;;;;;2090099;28;20099;-76
2022/06/24 07:35:57;;;;;;;1.90;1.80;;;;;;;;;;2092007;28;20033;-75
2022/06/24 07:37:16;;;;;;;2.28;1.80;;;;;;;;;;2095932;28;20052;-75
2022/06/24 07:38:35;;;;;;;2.40;2.20;;;;;;;;;;2090879;28;20033;-75
2022/06/24 07:39:53;;;;;;;2.05;1.85;;;;;;;;;;2091775;28;20028;-74
2022/06/24 07:41:13;;;;;;;2.00;1.90;;;;;;;;;;2090602;28;20515;-76
2022/06/24 07:42:32;;;;;;;2.90;2.15;;;;;;;;;;2091676;28;20068;-76
2022/06/24 07:43:50;;;;;;;3.15;2.20;;;;;;;;;;2090334;28;20025;-77
2022/06/24 07:45:10;;;;;;;2.22;1.75;;;;;;;;;;2090573;28;20021;-77
2022/06/24 07:46:29;;;;;;;1.80;1.70;;;;;;;;;;2091480;28;20025;-76
2022/06/24 07:47:48;;;;;;;2.42;1.70;;;;;;;;;;2091842;28;20033;-78
2022/06/24 07:49:06;;;;;;;2.47;1.60;;;;;;;;;;2091918;28;20406;-76
2022/06/24 07:50:25;;;;;;;4.32;1.95;;;;;;;;;;2091613;28;20032;-75
2022/06/24 07:51:45;;;;;;;1.50;1.45;;;;;;;;;;2090813;28;20036;-75
2022/06/24 07:53:03;;;;;;;1.70;1.33;;;;;;;;;;2090644;28;20483;-77
2022/06/24 07:54:24;;;;;;;2.55;1.30;;;;;;;;;;2092050;28;20394;-77
2022/06/24 07:57:21;;;;;;;2.90;2.08;;;;;;;;;;2090727;28;20611;-79
2022/06/24 07:58:40;;;;;;;1.90;1.80;;;;;;;;;;2089849;28;20599;-74
2022/06/24 07:59:59;;;;;;;2.00;1.90;;;;;;;;;;2090501;28;20029;-77
2022/06/24 08:01:17;;;;;;;7.32;1.35;;;;;;;;;;2090244;28;20021;-76
2022/06/24 08:02:36;;;;;;;1.67;1.58;;;;;;;;;;2089669;28;20029;-77
2022/06/24 08:03:56;;;;;;;0.98;0.90;;;;;;;;;;2090494;28;20033;-75
2022/06/24 08:05:15;;;;;;;1.20;1.10;;;;;;;;;;2092091;28;20033;-79
2022/06/24 08:06:35;;;;;;;1.05;0.95;;;;;;;;;;2088641;28;20029;-78
2022/06/24 08:07:54;;;;;;;0.90;0.90;;;;;;;;;;2088786;28;20041;-77